Time;durP1;ratioP1;P1;durP2;ratioP2;P2;SDS_P1;SDS_P2;PMS_P1;PMS_P2;Temp;Humidity;BMP_temperature;BMP_pressure;BME280_temperature;BME280_humidity;BME280_pressure;Samples;Min_cycle;Max_cycle;Signal;HPM_P1;HPM_P2
2022/02/12 00:00:20;;;;;;;5.88;3.90;;;;;;;;;;5053474;28;20029;-71
2022/02/12 00:02:46;;;;;;;6.85;4.07;;;;;;;;;;5053915;28;20025;-72
2022/02/12 00:05:14;;;;;;;5.38;3.78;;;;;;;;;;5052289;28;20036;-72
2022/02/12 00:07:40;;;;;;;6.35;3.85;;;;;;;;;;5053574;28;20032;-72
2022/02/12 00:10:06;;;;;;;3.75;2.35;;;;;;;;;;5053648;28;20009;-73
2022/02/12 00:12:32;;;;;;;4.53;3.17;;;;;;;;;;5052908;28;20067;-73
2022/02/12 00:14:58;;;;;;;4.32;3.28;;;;;;;;;;5053539;28;20398;-72
2022/02/12 00:17:24;;;;;;;5.15;3.25;;;;;;;;;;5053324;28;20172;-72
2022/02/12 00:19:50;;;;;;;5.68;3.92;;;;;;;;;;5053458;28;20047;-72
2022/02/12 00:22:16;;;;;;;6.28;4.20;;;;;;;;;;5053114;28;20119;-71
2022/02/12 00:24:41;;;;;;;6.32;3.80;;;;;;;;;;5053220;28;20095;-72
2022/02/12 00:27:07;;;;;;;5.32;3.85;;;;;;;;;;5053411;28;20025;-72
2022/02/12 00:29:32;;;;;;;3.80;3.13;;;;;;;;;;5053279;28;20013;-72
2022/02/12 00:31:58;;;;;;;3.63;3.25;;;;;;;;;;5053398;28;20459;-73
2022/02/12 00:34:24;;;;;;;4.63;3.75;;;;;;;;;;5053137;28;20052;-72
2022/02/12 00:36:49;;;;;;;6.10;3.65;;;;;;;;;;5053478;28;20395;-72
2022/02/12 00:39:15;;;;;;;7.95;3.92;;;;;;;;;;5053187;28;20478;-72
2022/02/12 00:41:40;;;;;;;6.88;4.32;;;;;;;;;;5053262;28;20021;-72
2022/02/12 00:44:07;;;;;;;5.68;4.05;;;;;;;;;;5053243;28;20021;-72
2022/02/12 00:46:32;;;;;;;6.65;4.35;;;;;;;;;;5053495;28;20029;-72
2022/02/12 00:48:58;;;;;;;7.05;3.92;;;;;;;;;;5052915;28;20031;-72
2022/02/12 00:51:23;;;;;;;5.93;4.03;;;;;;;;;;5053236;28;20025;-72
2022/02/12 00:53:50;;;;;;;7.05;3.42;;;;;;;;;;5053124;28;20017;-71
2022/02/12 00:56:16;;;;;;;7.40;4.07;;;;;;;;;;5052999;28;20032;-70
2022/02/12 00:58:41;;;;;;;5.65;3.53;;;;;;;;;;5052953;28;20025;-71
2022/02/12 01:01:07;;;;;;;7.78;4.45;;;;;;;;;;5053211;28;20120;-71
2022/02/12 01:03:32;;;;;;;6.13;3.95;;;;;;;;;;5052865;28;20035;-71
2022/02/12 01:05:58;;;;;;;6.55;3.83;;;;;;;;;;5052901;28;20161;-71
2022/02/12 01:08:23;;;;;;;5.70;4.20;;;;;;;;;;5053332;28;20040;-71
2022/02/12 01:10:49;;;;;;;7.40;3.65;;;;;;;;;;5053236;28;20033;-71
2022/02/12 01:13:14;;;;;;;5.80;4.00;;;;;;;;;;5053345;28;20087;-71
2022/02/12 01:15:40;;;;;;;7.50;4.40;;;;;;;;;;5052670;28;20020;-71
2022/02/12 01:18:05;;;;;;;6.63;4.30;;;;;;;;;;5051212;28;20429;-71
2022/02/12 01:20:34;;;;;;;5.22;3.60;;;;;;;;;;5052267;28;20029;-71
2022/02/12 01:23:02;;;;;;;5.03;4.22;;;;;;;;;;5052801;28;20119;-72
2022/02/12 01:25:29;;;;;;;6.97;4.55;;;;;;;;;;5055846;28;20075;-71
2022/02/12 01:27:54;;;;;;;6.47;4.35;;;;;;;;;;5056535;28;20017;-71
2022/02/12 01:30:21;;;;;;;6.13;4.40;;;;;;;;;;5057165;28;20063;-72
2022/02/12 01:32:47;;;;;;;7.10;4.47;;;;;;;;;;5056475;28;20027;-71
2022/02/12 01:35:13;;;;;;;4.10;3.35;;;;;;;;;;5056643;28;20391;-71
2022/02/12 01:37:39;;;;;;;6.15;4.93;;;;;;;;;;5055166;28;20025;-72
2022/02/12 01:40:05;;;;;;;4.60;4.05;;;;;;;;;;5056483;28;20065;-71
2022/02/12 01:42:30;;;;;;;8.02;5.15;;;;;;;;;;5056464;28;20395;-72
2022/02/12 01:44:58;;;;;;;6.30;4.90;;;;;;;;;;5055282;28;20037;-71
2022/02/12 01:47:23;;;;;;;5.70;4.63;;;;;;;;;;5056664;28;20025;-71
2022/02/12 01:49:49;;;;;;;6.00;4.82;;;;;;;;;;5056547;28;20049;-71
2022/02/12 01:52:15;;;;;;;5.55;4.82;;;;;;;;;;5056088;28;20013;-71
2022/02/12 01:54:41;;;;;;;4.72;4.18;;;;;;;;;;5056282;28;20047;-72
2022/02/12 01:57:07;;;;;;;5.57;4.75;;;;;;;;;;5056041;28;20029;-72
2022/02/12 01:59:33;;;;;;;5.72;3.95;;;;;;;;;;5054603;28;20032;-70
2022/02/12 02:02:01;;;;;;;5.82;4.60;;;;;;;;;;5055733;28;20020;-71
2022/02/12 02:04:29;;;;;;;4.95;4.45;;;;;;;;;;5056220;28;20467;-70
2022/02/12 02:06:55;;;;;;;4.05;3.72;;;;;;;;;;5054637;28;20027;-71
2022/02/12 02:09:20;;;;;;;5.90;4.32;;;;;;;;;;5054754;28;20383;-71
2022/02/12 02:11:48;;;;;;;5.75;4.55;;;;;;;;;;5055745;28;20036;-72
2022/02/12 02:14:14;;;;;;;5.05;4.55;;;;;;;;;;5056003;28;20021;-72
2022/02/12 02:16:40;;;;;;;4.55;4.15;;;;;;;;;;5054975;28;20522;-71
2022/02/12 02:19:06;;;;;;;6.43;4.70;;;;;;;;;;5055538;28;20041;-70
2022/02/12 02:21:34;;;;;;;5.03;4.10;;;;;;;;;;5055382;28;20025;-70
2022/02/12 02:23:59;;;;;;;5.05;4.55;;;;;;;;;;5055835;28;20029;-70
2022/02/12 02:26:25;;;;;;;4.97;4.47;;;;;;;;;;5055426;28;20020;-69
2022/02/12 02:28:50;;;;;;;5.93;4.65;;;;;;;;;;5055537;28;20021;-71
2022/02/12 02:31:16;;;;;;;6.18;4.57;;;;;;;;;;5055488;28;20021;-71
2022/02/12 02:33:41;;;;;;;5.22;4.28;;;;;;;;;;5055480;28;20143;-71
2022/02/12 02:36:08;;;;;;;5.28;4.35;;;;;;;;;;5054709;28;20383;-71
2022/02/12 02:38:34;;;;;;;5.80;5.18;;;;;;;;;;5055024;28;20036;-71
2022/02/12 02:41:02;;;;;;;5.28;4.60;;;;;;;;;;5055156;28;20036;-71
2022/02/12 02:43:27;;;;;;;6.80;4.50;;;;;;;;;;5055213;28;20109;-71
2022/02/12 02:45:53;;;;;;;5.60;4.53;;;;;;;;;;5055164;28;20802;-71
2022/02/12 02:48:20;;;;;;;7.35;4.50;;;;;;;;;;5054178;28;20098;-72
2022/02/12 02:56:17;;;;;;;5.15;4.22;;;;;;;;;;5053672;28;20083;-73
2022/02/12 02:58:45;;;;;;;4.57;4.15;;;;;;;;;;5054652;28;20013;-72
2022/02/12 03:01:23;;;;;;;5.65;4.45;;;;;;;;;;5054954;28;20025;-72
2022/02/12 03:03:50;;;;;;;4.53;4.13;;;;;;;;;;5054524;28;20036;-72
2022/02/12 03:06:16;;;;;;;5.15;4.20;;;;;;;;;;5054403;28;20025;-72
2022/02/12 03:08:42;;;;;;;5.95;3.92;;;;;;;;;;5054402;28;20120;-72
2022/02/12 03:11:08;;;;;;;5.15;3.80;;;;;;;;;;5053509;28;20095;-71
2022/02/12 03:13:34;;;;;;;4.40;4.00;;;;;;;;;;5054647;28;20031;-72
2022/02/12 03:16:08;;;;;;;5.35;4.32;;;;;;;;;;5053463;28;20474;-74
2022/02/12 03:18:46;;;;;;;4.47;3.53;;;;;;;;;;5052748;28;20032;-73
2022/02/12 03:21:21;;;;;;;4.22;3.40;;;;;;;;;;5052913;28;20028;-75
2022/02/12 03:24:01;;;;;;;4.28;3.53;;;;;;;;;;5052999;28;20032;-71
2022/02/12 03:26:34;;;;;;;4.20;3.42;;;;;;;;;;5052731;28;20037;-70
2022/02/12 03:29:01;;;;;;;4.25;3.60;;;;;;;;;;5069624;28;20116;-70
2022/02/12 03:31:26;;;;;;;4.75;3.65;;;;;;;;;;5069663;28;20043;-70
2022/02/12 03:33:53;;;;;;;3.78;3.42;;;;;;;;;;5054056;28;20423;-70
2022/02/12 03:36:18;;;;;;;4.03;3.60;;;;;;;;;;5052795;28;20104;-71
2022/02/12 03:38:48;;;;;;;4.28;3.45;;;;;;;;;;5053940;28;20470;-71
2022/02/12 03:41:14;;;;;;;3.42;3.10;;;;;;;;;;5052936;28;20028;-71
2022/02/12 03:43:39;;;;;;;4.07;3.15;;;;;;;;;;5053946;28;20359;-71
2022/02/12 03:46:05;;;;;;;6.00;3.22;;;;;;;;;;5053658;28;20021;-71
2022/02/12 03:48:31;;;;;;;3.40;2.95;;;;;;;;;;5053428;28;20383;-71
2022/02/12 03:50:56;;;;;;;3.40;3.10;;;;;;;;;;5053841;28;20027;-71
2022/02/12 03:53:22;;;;;;;3.67;3.13;;;;;;;;;;5053776;28;20055;-71
2022/02/12 03:55:49;;;;;;;4.55;3.10;;;;;;;;;;5052396;28;20463;-71
2022/02/12 03:58:16;;;;;;;4.15;2.90;;;;;;;;;;5053693;28;20028;-71
2022/02/12 04:00:42;;;;;;;4.88;3.22;;;;;;;;;;5053815;28;20025;-71
2022/02/12 04:03:08;;;;;;;4.57;3.10;;;;;;;;;;5053015;28;20029;-71
2022/02/12 04:05:34;;;;;;;5.55;3.45;;;;;;;;;;5053281;28;20021;-71
2022/02/12 04:07:59;;;;;;;4.90;3.47;;;;;;;;;;5053650;28;20067;-71
2022/02/12 04:10:25;;;;;;;4.30;3.13;;;;;;;;;;5053429;28;20375;-71
2022/02/12 04:12:53;;;;;;;6.25;3.17;;;;;;;;;;5053710;28;20025;-70
2022/02/12 04:15:24;;;;;;;3.67;3.15;;;;;;;;;;5053765;28;20021;-70
2022/02/12 04:17:50;;;;;;;4.68;3.10;;;;;;;;;;5053203;28;20060;-70
2022/02/12 04:20:17;;;;;;;3.83;2.75;;;;;;;;;;5053465;28;20029;-71
2022/02/12 04:22:43;;;;;;;3.35;2.60;;;;;;;;;;5053381;28;20021;-71
2022/02/12 04:25:10;;;;;;;4.20;2.70;;;;;;;;;;5051841;28;20482;-71
2022/02/12 04:27:37;;;;;;;3.97;2.65;;;;;;;;;;5053453;28;20029;-73
2022/02/12 04:30:06;;;;;;;6.60;2.90;;;;;;;;;;5052125;28;20028;-71
2022/02/12 04:32:31;;;;;;;4.00;2.90;;;;;;;;;;5053288;28;20482;-72
2022/02/12 04:34:59;;;;;;;4.18;3.13;;;;;;;;;;5053381;28;20029;-71
2022/02/12 04:37:24;;;;;;;5.10;3.17;;;;;;;;;;5053197;28;20098;-72
2022/02/12 04:39:50;;;;;;;2.90;2.70;;;;;;;;;;5052021;28;20028;-71
2022/02/12 04:42:17;;;;;;;4.20;3.10;;;;;;;;;;5053060;28;20025;-71
2022/02/12 04:44:43;;;;;;;6.40;3.20;;;;;;;;;;5053138;28;20013;-71
2022/02/12 04:47:10;;;;;;;4.55;3.17;;;;;;;;;;5053288;28;20025;-72
2022/02/12 04:49:36;;;;;;;5.32;3.20;;;;;;;;;;5053394;28;20055;-72
2022/02/12 04:52:02;;;;;;;4.25;2.83;;;;;;;;;;5053389;28;20071;-71
2022/02/12 04:54:28;;;;;;;4.75;2.92;;;;;;;;;;5053016;28;20025;-71
2022/02/12 04:56:54;;;;;;;3.20;2.92;;;;;;;;;;5053068;28;20051;-71
2022/02/12 04:59:19;;;;;;;8.15;3.38;;;;;;;;;;5055764;28;20447;-72
2022/02/12 05:01:46;;;;;;;4.68;3.10;;;;;;;;;;5057249;28;20033;-72
2022/02/12 05:04:12;;;;;;;3.35;2.65;;;;;;;;;;5057228;28;20025;-71
2022/02/12 05:06:38;;;;;;;5.28;3.00;;;;;;;;;;5057307;28;20017;-72
2022/02/12 05:09:03;;;;;;;5.20;3.00;;;;;;;;;;5057026;28;20390;-72
2022/02/12 05:11:29;;;;;;;4.88;3.00;;;;;;;;;;5056914;28;20469;-72
2022/02/12 05:13:56;;;;;;;5.55;3.30;;;;;;;;;;5056943;28;20030;-72
2022/02/12 05:16:21;;;;;;;7.47;3.92;;;;;;;;;;5056500;28;20036;-72
2022/02/12 05:18:48;;;;;;;6.80;3.80;;;;;;;;;;5057135;28;20035;-71
2022/02/12 05:21:13;;;;;;;6.80;3.75;;;;;;;;;;5057010;28;20437;-71
2022/02/12 05:23:40;;;;;;;6.65;3.58;;;;;;;;;;5056727;28;20032;-72
2022/02/12 05:26:05;;;;;;;6.35;3.60;;;;;;;;;;5055423;28;20047;-72
2022/02/12 05:28:30;;;;;;;6.57;3.92;;;;;;;;;;5056694;28;20021;-71
2022/02/12 05:30:56;;;;;;;4.53;3.60;;;;;;;;;;5056621;28;20036;-71
2022/02/12 05:33:25;;;;;;;5.95;3.60;;;;;;;;;;5056300;28;20024;-73
2022/02/12 05:35:50;;;;;;;5.45;3.60;;;;;;;;;;5056331;28;20040;-73
2022/02/12 05:38:16;;;;;;;4.90;3.33;;;;;;;;;;5054889;28;20391;-72
2022/02/12 05:40:41;;;;;;;5.60;3.33;;;;;;;;;;5056151;28;20028;-72
2022/02/12 05:43:08;;;;;;;5.55;3.60;;;;;;;;;;5055268;28;20375;-72
2022/02/12 05:45:33;;;;;;;4.63;3.40;;;;;;;;;;5056307;28;20404;-72
2022/02/12 05:47:59;;;;;;;5.28;3.63;;;;;;;;;;5063733;28;20321;-72
2022/02/12 05:50:27;;;;;;;8.23;3.92;;;;;;;;;;5073411;28;20020;-72
2022/02/12 05:52:57;;;;;;;4.53;3.50;;;;;;;;;;5067075;28;20390;-72
2022/02/12 05:55:23;;;;;;;4.82;3.40;;;;;;;;;;5065664;28;20472;-71
2022/02/12 05:57:48;;;;;;;6.00;3.60;;;;;;;;;;5069146;28;20013;-68
2022/02/12 06:00:14;;;;;;;4.55;3.50;;;;;;;;;;5066417;28;20029;-68
2022/02/12 06:02:39;;;;;;;4.22;3.30;;;;;;;;;;5064288;28;20021;-68
2022/02/12 06:05:05;;;;;;;6.05;3.20;;;;;;;;;;5065360;28;20051;-68
2022/02/12 06:07:31;;;;;;;4.47;3.13;;;;;;;;;;5063903;28;20021;-68
2022/02/12 06:09:56;;;;;;;5.35;3.15;;;;;;;;;;5064685;28;20082;-68
2022/02/12 06:12:21;;;;;;;4.70;3.40;;;;;;;;;;5059459;28;20025;-68
2022/02/12 06:14:47;;;;;;;3.88;2.75;;;;;;;;;;5055443;28;20029;-67
2022/02/12 06:17:12;;;;;;;6.35;3.30;;;;;;;;;;5055235;28;20487;-68
2022/02/12 06:19:39;;;;;;;4.97;3.50;;;;;;;;;;5055407;28;20029;-68
2022/02/12 06:22:05;;;;;;;5.50;3.53;;;;;;;;;;5055633;28;20071;-68
2022/02/12 06:24:30;;;;;;;6.75;4.00;;;;;;;;;;5055400;28;20021;-68
2022/02/12 06:26:56;;;;;;;5.70;4.05;;;;;;;;;;5055328;28;20425;-68
2022/02/12 06:29:22;;;;;;;5.07;4.10;;;;;;;;;;5055120;28;20441;-68
2022/02/12 06:31:48;;;;;;;6.43;3.97;;;;;;;;;;5055033;28;20128;-68
2022/02/12 06:34:14;;;;;;;8.30;4.20;;;;;;;;;;5055113;28;20052;-68
2022/02/12 06:36:40;;;;;;;6.30;4.10;;;;;;;;;;5053933;28;20025;-67
2022/02/12 06:39:06;;;;;;;22.35;10.30;;;;;;;;;;5054698;28;20453;-67
2022/02/12 06:41:32;;;;;;;54.38;19.83;;;;;;;;;;5054874;28;20024;-71
2022/02/12 06:44:01;;;;;;;54.42;21.15;;;;;;;;;;5070540;28;20033;-72
2022/02/12 06:46:29;;;;;;;18.75;9.38;;;;;;;;;;5054914;28;20028;-73
2022/02/12 06:48:54;;;;;;;19.38;10.75;;;;;;;;;;5054775;28;20086;-72
2022/02/12 06:51:20;;;;;;;24.95;16.38;;;;;;;;;;5054694;28;20422;-68
2022/02/12 06:53:45;;;;;;;21.40;16.27;;;;;;;;;;5054909;28;20033;-70
2022/02/12 06:56:11;;;;;;;4.70;4.30;;;;;;;;;;5054495;28;20121;-71
2022/02/12 06:58:36;;;;;;;4.25;2.85;;;;;;;;;;5054777;28;20112;-71
2022/02/12 07:01:02;;;;;;;4.53;2.55;;;;;;;;;;5054480;28;20474;-71
2022/02/12 07:03:28;;;;;;;3.38;2.70;;;;;;;;;;5054655;28;20471;-70
2022/02/12 07:05:54;;;;;;;3.83;2.65;;;;;;;;;;5054689;28;20021;-71
2022/02/12 07:08:19;;;;;;;4.75;2.70;;;;;;;;;;5054555;28;20169;-71
2022/02/12 07:10:45;;;;;;;3.97;2.85;;;;;;;;;;5054555;28;20032;-71
2022/02/12 07:13:13;;;;;;;3.22;2.92;;;;;;;;;;5053426;28;20484;-77
2022/02/12 07:15:39;;;;;;;4.55;2.65;;;;;;;;;;5054691;28;20052;-76
2022/02/12 07:18:04;;;;;;;14.27;7.70;;;;;;;;;;5054556;28;20064;-77
2022/02/12 07:20:30;;;;;;;17.25;9.40;;;;;;;;;;5054048;28;20051;-77
2022/02/12 07:22:56;;;;;;;18.13;9.27;;;;;;;;;;5052070;28;20135;-77
2022/02/12 07:25:31;;;;;;;10.25;6.32;;;;;;;;;;5054844;28;20017;-77
2022/02/12 07:27:57;;;;;;;10.15;5.25;;;;;;;;;;5054307;28;20036;-71
2022/02/12 07:30:25;;;;;;;8.45;4.82;;;;;;;;;;5054372;28;20025;-77
2022/02/12 07:32:50;;;;;;;6.05;3.97;;;;;;;;;;5054084;28;20033;-78
2022/02/12 07:35:16;;;;;;;8.18;4.60;;;;;;;;;;5054030;28;20434;-77
2022/02/12 07:37:45;;;;;;;8.27;4.43;;;;;;;;;;5053893;28;20486;-78
2022/02/12 07:40:11;;;;;;;6.03;4.00;;;;;;;;;;5053913;28;20067;-78
2022/02/12 07:42:37;;;;;;;5.45;3.95;;;;;;;;;;5068672;28;20471;-77
2022/02/12 07:45:02;;;;;;;11.75;6.47;;;;;;;;;;5053382;28;20108;-77
2022/02/12 07:47:28;;;;;;;8.68;5.10;;;;;;;;;;5053648;28;20025;-78
2022/02/12 07:49:53;;;;;;;6.65;4.07;;;;;;;;;;5053590;28;20024;-78
2022/02/12 07:52:19;;;;;;;5.55;3.70;;;;;;;;;;5053462;28;20440;-77
2022/02/12 07:54:44;;;;;;;4.80;2.78;;;;;;;;;;5053359;28;20035;-78
2022/02/12 07:57:10;;;;;;;8.55;5.18;;;;;;;;;;5053309;28;20113;-77
2022/02/12 07:59:35;;;;;;;11.73;6.50;;;;;;;;;;5053260;28;20028;-77
2022/02/12 08:02:01;;;;;;;10.23;5.97;;;;;;;;;;5053226;28;20028;-77
2022/02/12 08:04:28;;;;;;;10.77;5.07;;;;;;;;;;5053497;28;20024;-77
2022/02/12 08:09:39;;;;;;;3.78;2.88;;;;;;;;;;5053392;28;20037;-77
2022/02/12 08:12:13;;;;;;;4.75;2.75;;;;;;;;;;5053297;28;20031;-74
2022/02/12 08:14:39;;;;;;;4.32;2.60;;;;;;;;;;5053402;28;20033;-76
2022/02/12 08:17:04;;;;;;;7.22;3.92;;;;;;;;;;5052710;28;20049;-73
2022/02/12 08:19:32;;;;;;;7.88;4.53;;;;;;;;;;5052898;28;20036;-73
2022/02/12 08:21:57;;;;;;;8.57;4.25;;;;;;;;;;5052813;28;20009;-73
2022/02/12 08:24:23;;;;;;;301.98;122.35;;;;;;;;;;5053055;28;20438;-74
2022/02/12 08:26:48;;;;;;;155.35;62.72;;;;;;;;;;5053042;28;20025;-73
2022/02/12 08:29:14;;;;;;;645.20;276.90;;;;;;;;;;5053163;28;20021;-73
2022/02/12 08:31:39;;;;;;;7.60;4.97;;;;;;;;;;5053077;28;20090;-73
2022/02/12 08:34:05;;;;;;;6.88;3.30;;;;;;;;;;5052576;28;20033;-73
2022/02/12 08:36:30;;;;;;;8.07;4.95;;;;;;;;;;5052575;28;20025;-74
2022/02/12 08:38:58;;;;;;;322.17;141.25;;;;;;;;;;5051529;28;20033;-74
2022/02/12 08:41:23;;;;;;;17.77;8.88;;;;;;;;;;5052849;28;20019;-74
2022/02/12 08:43:49;;;;;;;17.30;9.45;;;;;;;;;;5051863;28;20029;-72
2022/02/12 08:46:17;;;;;;;8.95;4.88;;;;;;;;;;5052942;28;20017;-72
2022/02/12 08:48:42;;;;;;;4.78;3.30;;;;;;;;;;5051625;28;20501;-72
2022/02/12 08:51:08;;;;;;;15.63;9.15;;;;;;;;;;5052710;28;20017;-72
2022/02/12 08:53:34;;;;;;;11.90;6.20;;;;;;;;;;5052744;28;20091;-72
2022/02/12 08:56:00;;;;;;;5.28;3.47;;;;;;;;;;5052766;28;20025;-72
2022/02/12 08:58:26;;;;;;;7.05;3.63;;;;;;;;;;5052823;28;20349;-72
2022/02/12 09:00:52;;;;;;;8.13;3.90;;;;;;;;;;5052578;28;20100;-72
2022/02/12 09:03:17;;;;;;;5.65;3.47;;;;;;;;;;5052674;28;20037;-72
2022/02/12 09:05:43;;;;;;;5.13;3.65;;;;;;;;;;5051397;28;20032;-72
2022/02/12 09:08:08;;;;;;;6.55;3.85;;;;;;;;;;5052769;28;20115;-72
2022/02/12 09:10:33;;;;;;;5.85;3.45;;;;;;;;;;5052742;28;20059;-72
2022/02/12 09:12:59;;;;;;;3.47;3.17;;;;;;;;;;5052697;28;20053;-72
2022/02/12 09:15:24;;;;;;;4.10;3.05;;;;;;;;;;5052577;28;20039;-72
2022/02/12 09:17:50;;;;;;;4.45;3.25;;;;;;;;;;5052424;28;20107;-72
2022/02/12 09:20:16;;;;;;;4.43;3.38;;;;;;;;;;5052295;28;20032;-72
2022/02/12 09:22:41;;;;;;;5.70;4.03;;;;;;;;;;5052366;28;20067;-72
2022/02/12 09:25:08;;;;;;;4.22;3.30;;;;;;;;;;5052470;28;20017;-72
2022/02/12 09:27:34;;;;;;;4.57;2.90;;;;;;;;;;5067927;28;20047;-72
2022/02/12 09:29:59;;;;;;;5.45;3.15;;;;;;;;;;5052115;28;20033;-71
2022/02/12 09:32:26;;;;;;;6.07;3.45;;;;;;;;;;5051456;28;20025;-71
2022/02/12 09:34:52;;;;;;;3.25;2.83;;;;;;;;;;5052500;28;20467;-71
2022/02/12 09:37:19;;;;;;;4.20;3.20;;;;;;;;;;5051058;28;20056;-71
2022/02/12 09:39:44;;;;;;;5.10;3.85;;;;;;;;;;5052294;28;20068;-71
2022/02/12 09:42:10;;;;;;;5.05;3.42;;;;;;;;;;5052250;28;20064;-71
2022/02/12 09:44:38;;;;;;;6.45;3.47;;;;;;;;;;5052585;28;20025;-71
2022/02/12 09:47:15;;;;;;;6.65;3.70;;;;;;;;;;5056012;28;20383;-71
2022/02/12 09:49:42;;;;;;;4.50;3.38;;;;;;;;;;5054763;28;20033;-71
2022/02/12 09:52:15;;;;;;;4.05;3.28;;;;;;;;;;5068779;28;20036;-71
2022/02/12 09:54:42;;;;;;;4.72;3.20;;;;;;;;;;5074832;28;20036;-72
2022/02/12 09:57:08;;;;;;;26.13;12.43;;;;;;;;;;5074848;28;20055;-72
2022/02/12 09:59:33;;;;;;;4.70;3.47;;;;;;;;;;5074667;28;20059;-72
2022/02/12 10:01:59;;;;;;;3.55;2.15;;;;;;;;;;5075584;28;20017;-72
2022/02/12 10:04:25;;;;;;;4.72;3.28;;;;;;;;;;5075677;28;20036;-72
2022/02/12 10:06:51;;;;;;;3.53;2.92;;;;;;;;;;5074461;28;20414;-71
2022/02/12 10:09:17;;;;;;;5.03;3.05;;;;;;;;;;5074471;28;20040;-71
2022/02/12 10:11:50;;;;;;;4.47;3.25;;;;;;;;;;5075888;28;20026;-72
2022/02/12 10:14:17;;;;;;;4.68;3.13;;;;;;;;;;5074381;28;20025;-71
2022/02/12 10:16:51;;;;;;;3.28;2.58;;;;;;;;;;5074938;28;20048;-71
2022/02/12 10:19:18;;;;;;;3.90;3.03;;;;;;;;;;5074362;28;20368;-72
2022/02/12 10:22:02;;;;;;;4.32;3.22;;;;;;;;;;5075231;28;20359;-71
2022/02/12 10:24:46;;;;;;;4.05;2.83;;;;;;;;;;5074465;28;20025;-71
2022/02/12 10:27:12;;;;;;;23.67;8.35;;;;;;;;;;5074287;28;20394;-72
2022/02/12 10:29:37;;;;;;;762.90;294.38;;;;;;;;;;5075544;28;20024;-72
2022/02/12 10:32:03;;;;;;;28.23;13.35;;;;;;;;;;5091094;28;20479;-72
2022/02/12 10:34:43;;;;;;;91.72;30.13;;;;;;;;;;5075426;28;20039;-72
2022/02/12 10:37:12;;;;;;;182.63;48.92;;;;;;;;;;5075440;28;20025;-72
2022/02/12 10:39:48;;;;;;;418.52;122.85;;;;;;;;;;5067408;28;20017;-73
2022/02/12 10:42:16;;;;;;;8.70;4.30;;;;;;;;;;5092094;28;20081;-72
2022/02/12 10:44:43;;;;;;;6.30;3.75;;;;;;;;;;5066847;28;20009;-72
2022/02/12 10:47:09;;;;;;;5.20;3.20;;;;;;;;;;5069826;28;20028;-72
2022/02/12 10:49:39;;;;;;;7.00;3.08;;;;;;;;;;5072123;28;20051;-78
2022/02/12 10:52:06;;;;;;;4.70;3.20;;;;;;;;;;5056174;28;20125;-77
2022/02/12 10:54:44;;;;;;;517.55;164.68;;;;;;;;;;5055980;28;20067;-80
2022/02/12 10:57:29;;;;;;;441.42;146.60;;;;;;;;;;5053394;28;20368;-83
2022/02/12 11:00:02;;;;;;;91.38;25.98;;;;;;;;;;5055100;28;20111;-78
2022/02/12 11:02:30;;;;;;;8.18;2.88;;;;;;;;;;5061212;28;20021;-81
2022/02/12 11:05:16;;;;;;;3.85;2.63;;;;;;;;;;5074589;28;20024;-81
2022/02/12 11:07:42;;;;;;;5.10;2.58;;;;;;;;;;5074952;28;20074;-82
2022/02/12 11:10:15;;;;;;;17.75;7.22;;;;;;;;;;5075157;28;20016;-82
2022/02/12 11:12:42;;;;;;;2.67;2.30;;;;;;;;;;5073147;28;20470;-83
2022/02/12 11:15:38;;;;;;;106.55;45.25;;;;;;;;;;5074295;28;20042;-82
2022/02/12 11:18:06;;;;;;;12.43;6.05;;;;;;;;;;5072802;28;20044;-82
2022/02/12 11:20:52;;;;;;;1.98;1.77;;;;;;;;;;5072901;28;20437;-82
2022/02/12 11:23:27;;;;;;;1.25;1.08;;;;;;;;;;5072980;28;20039;-82
2022/02/12 11:26:03;;;;;;;5.90;3.88;;;;;;;;;;5073214;28;20154;-82
2022/02/12 11:29:06;;;;;;;1.80;1.50;;;;;;;;;;5074178;28;20028;-81
2022/02/12 11:31:41;;;;;;;1.77;1.23;;;;;;;;;;5074050;28;20056;-80
2022/02/12 11:34:17;;;;;;;2.72;2.10;;;;;;;;;;5074151;28;20377;-82
2022/02/12 11:36:45;;;;;;;3.30;1.65;;;;;;;;;;5072723;28;20090;-81
2022/02/12 11:39:26;;;;;;;3.08;1.90;;;;;;;;;;5057209;28;20020;-81
2022/02/12 11:41:51;;;;;;;4.78;1.95;;;;;;;;;;5066652;28;20040;-81
2022/02/12 11:44:36;;;;;;;2.85;2.00;;;;;;;;;;5058364;28;20012;-75
2022/02/12 11:47:10;;;;;;;2.28;1.88;;;;;;;;;;5062192;28;20021;-81
2022/02/12 11:49:40;;;;;;;1.92;1.63;;;;;;;;;;5052397;28;20044;-81
2022/02/12 11:52:07;;;;;;;3.75;1.73;;;;;;;;;;5063153;28;20081;-82
2022/02/12 11:54:49;;;;;;;3.92;2.30;;;;;;;;;;5072301;28;20031;-81
2022/02/12 11:57:41;;;;;;;3.58;2.58;;;;;;;;;;5053660;28;20025;-82
2022/02/12 12:00:08;;;;;;;2.92;2.38;;;;;;;;;;5028902;28;20037;-82
2022/02/12 12:02:40;;;;;;;4.43;3.00;;;;;;;;;;5054069;28;20120;-83
2022/02/12 12:05:28;;;;;;;6.60;4.00;;;;;;;;;;5052316;28;20391;-83
2022/02/12 12:11:13;;;;;;;8.45;4.40;;;;;;;;;;5052170;28;20041;-82
2022/02/12 12:13:54;;;;;;;6.50;4.10;;;;;;;;;;5051928;28;20399;-82
2022/02/12 12:16:23;;;;;;;8.30;4.60;;;;;;;;;;5045803;28;20049;-83
2022/02/12 12:18:51;;;;;;;8.95;4.63;;;;;;;;;;5052227;28;20076;-85
2022/02/12 12:27:33;;;;;;;8.40;4.32;;;;;;;;;;5073523;28;20020;-84
2022/02/12 12:32:57;;;;;;;6.65;3.28;;;;;;;;;;5073601;28;20047;-76
2022/02/12 12:35:22;;;;;;;6.35;4.10;;;;;;;;;;5073630;28;20021;-76
2022/02/12 12:37:55;;;;;;;46.70;15.88;;;;;;;;;;5073425;28;20031;-75
2022/02/12 12:40:30;;;;;;;21.92;8.73;;;;;;;;;;5073068;28;20043;-71
2022/02/12 12:43:06;;;;;;;5.60;3.85;;;;;;;;;;5073219;28;20467;-75
2022/02/12 12:45:42;;;;;;;5.85;3.70;;;;;;;;;;5073594;28;20023;-75
2022/02/12 12:48:07;;;;;;;6.38;3.40;;;;;;;;;;5073255;28;20490;-74
2022/02/12 12:50:34;;;;;;;4.85;3.42;;;;;;;;;;5073289;28;20028;-75
2022/02/12 12:53:10;;;;;;;7.47;4.00;;;;;;;;;;5073146;28;20028;-71
2022/02/12 12:55:36;;;;;;;11.23;6.43;;;;;;;;;;5073602;28;20081;-75
2022/02/12 12:58:15;;;;;;;6.90;4.15;;;;;;;;;;5073272;28;20024;-75
2022/02/12 13:00:42;;;;;;;15.88;9.55;;;;;;;;;;5072948;28;20135;-74
2022/02/12 13:03:07;;;;;;;6.88;4.30;;;;;;;;;;5073260;28;20017;-75
2022/02/12 13:05:33;;;;;;;5.07;2.55;;;;;;;;;;5073034;28;20378;-75
2022/02/12 13:08:08;;;;;;;3.88;3.10;;;;;;;;;;5072590;28;20013;-75
2022/02/12 13:10:35;;;;;;;4.72;2.67;;;;;;;;;;5072586;28;20036;-73
2022/02/12 13:13:10;;;;;;;3.20;2.53;;;;;;;;;;5072881;28;20021;-75
2022/02/12 13:15:37;;;;;;;5.07;3.15;;;;;;;;;;5071572;28;20376;-75
2022/02/12 13:18:02;;;;;;;8.48;4.03;;;;;;;;;;5071191;28;20135;-75
2022/02/12 13:20:28;;;;;;;14.27;5.25;;;;;;;;;;5075985;28;20119;-75
2022/02/12 13:22:54;;;;;;;36.03;11.18;;;;;;;;;;5076721;28;20048;-75
2022/02/12 13:25:20;;;;;;;8.40;4.82;;;;;;;;;;5076216;28;20032;-75
2022/02/12 13:27:46;;;;;;;5.25;4.25;;;;;;;;;;5075128;28;20031;-75
2022/02/12 13:30:12;;;;;;;5.88;3.50;;;;;;;;;;5075177;28;20490;-75
2022/02/12 13:32:40;;;;;;;6.18;3.50;;;;;;;;;;5076349;28;20028;-76
2022/02/12 13:35:08;;;;;;;5.25;3.78;;;;;;;;;;5076166;28;20039;-76
2022/02/12 13:37:35;;;;;;;10.23;7.25;;;;;;;;;;5075210;28;20024;-75
2022/02/12 13:40:04;;;;;;;334.38;86.03;;;;;;;;;;5076313;28;20134;-75
2022/02/12 13:42:29;;;;;;;87.22;27.38;;;;;;;;;;5076423;28;20108;-75
2022/02/12 13:45:02;;;;;;;21.10;10.60;;;;;;;;;;5075321;28;20526;-75
2022/02/12 13:47:27;;;;;;;9.95;4.90;;;;;;;;;;5074718;28;20024;-75
2022/02/12 13:49:56;;;;;;;14.85;7.22;;;;;;;;;;5091932;28;20021;-75
2022/02/12 13:52:22;;;;;;;9.95;6.45;;;;;;;;;;5075572;28;20111;-75
2022/02/12 13:55:04;;;;;;;8.63;5.65;;;;;;;;;;5074267;28;20031;-75
2022/02/12 13:57:30;;;;;;;8.27;4.25;;;;;;;;;;5075833;28;20032;-75
2022/02/12 13:59:55;;;;;;;16.40;8.52;;;;;;;;;;5075642;28;20013;-75
2022/02/12 14:02:21;;;;;;;5.22;3.45;;;;;;;;;;5075697;28;20024;-74
2022/02/12 14:04:46;;;;;;;21.17;12.10;;;;;;;;;;5075643;28;20017;-74
2022/02/12 14:07:13;;;;;;;18.90;10.75;;;;;;;;;;5075930;28;20486;-74
2022/02/12 14:09:39;;;;;;;5.80;3.80;;;;;;;;;;5074614;28;20398;-74
2022/02/12 14:12:04;;;;;;;4.57;3.58;;;;;;;;;;5075730;28;20031;-75
2022/02/12 14:14:30;;;;;;;7.05;2.95;;;;;;;;;;5074434;28;20025;-75
2022/02/12 14:16:55;;;;;;;19.50;4.03;;;;;;;;;;5075103;28;20040;-75
2022/02/12 14:19:21;;;;;;;71.63;35.65;;;;;;;;;;5075606;28;20110;-75
2022/02/12 14:21:46;;;;;;;79.90;40.17;;;;;;;;;;5075406;28;20032;-75
2022/02/12 14:24:12;;;;;;;19.88;10.30;;;;;;;;;;5074850;28;20024;-75
2022/02/12 14:26:37;;;;;;;37.05;27.38;;;;;;;;;;5075544;28;20434;-75
2022/02/12 14:29:04;;;;;;;13.63;8.80;;;;;;;;;;5075400;28;20024;-75
2022/02/12 14:31:29;;;;;;;16.48;8.45;;;;;;;;;;5074896;28;20103;-75
2022/02/12 14:33:55;;;;;;;11.65;6.22;;;;;;;;;;5075146;28;20509;-75
2022/02/12 14:36:20;;;;;;;18.38;9.27;;;;;;;;;;5075198;28;20067;-74
2022/02/12 14:38:47;;;;;;;15.52;8.95;;;;;;;;;;5075230;28;20035;-75
2022/02/12 14:41:15;;;;;;;14.57;8.77;;;;;;;;;;5075025;28;20040;-75
2022/02/12 14:43:41;;;;;;;30.40;14.63;;;;;;;;;;5073635;28;20115;-75
2022/02/12 14:46:06;;;;;;;81.55;39.13;;;;;;;;;;5075106;28;20047;-75
2022/02/12 14:48:32;;;;;;;58.97;31.42;;;;;;;;;;5075288;28;20025;-75
2022/02/12 14:50:57;;;;;;;37.80;22.85;;;;;;;;;;5075045;28;20375;-75
2022/02/12 14:53:25;;;;;;;9.93;6.63;;;;;;;;;;5074810;28;20029;-75
2022/02/12 14:55:50;;;;;;;9.38;5.30;;;;;;;;;;5074870;28;20035;-75
2022/02/12 14:58:16;;;;;;;6.25;4.50;;;;;;;;;;5075337;28;20029;-75
2022/02/12 15:00:41;;;;;;;19.35;10.10;;;;;;;;;;5074646;28;20110;-75